»·PEaware :: N12SA KAUN-KBOK

N12SA :: KAUN-KBOK

FLIGHT INFORMATION

Flight Status: Arrived
Operator: Privately registered:
United States
More flights under this callsign
Pilot: Johnny M. (21174)
Aircraft: SOCATA TBM-900
(TBM9)
More flights by this aircraft type
Origin: KAUN Auburn Mun
United States
Destination: KBOK Brookings State
United States
More flights between these airports :: More routes between these airports
Route: MRGGO RBL
File this flight plan on PilotEdge
Remarks:
Altitude:
(Current/Filed)
12,500ft
Speed:
(Current/Filed)
265kts
Departed: 26-Apr-19 05:54 AM
Arrived: 26-Apr-19 06:58 AM
Distance/Time
Traveled:
238nm/1:04
Distance/Time
To Go:
Arrived

Flight Plot

Page will automatically refresh every two minutes.

Flight plan parsing failed; only flown route is shown


Map Options




Map Legend


Flown Route
Filed Route
Departure Airport
Arrival Airport
Navaid (VOR, NDB)
Fix

Horizontal Profiles

Position Reports

Time Latitude Longitude Heading Altitude Ground
Speed
26-Apr-19 05:52 38.953805 -121.087314 278 1539ft 0kts
26-Apr-19 05:53 38.954497 -121.085586 83 1539ft 63kts
26-Apr-19 05:54 38.966304 -121.051494 5 2982ft 129kts
26-Apr-19 05:55 38.993650 -121.086537 298 5044ft 163kts
26-Apr-19 05:56 39.024327 -121.132058 325 7074ft 178kts
26-Apr-19 05:57 39.067192 -121.164198 326 8993ft 179kts
26-Apr-19 05:58 39.113337 -121.186614 336 10510ft 195kts
26-Apr-19 05:59 39.171766 -121.213778 336 10519ft 240kts
26-Apr-19 06:00 39.234315 -121.247921 326 10508ft 242kts
26-Apr-19 06:01 39.281790 -121.307302 301 10482ft 238kts
26-Apr-19 06:02 39.322617 -121.372840 314 10447ft 239kts
26-Apr-19 06:03 39.368005 -121.435738 319 10425ft 246kts
26-Apr-19 06:04 39.420839 -121.492728 319 10429ft 246kts
26-Apr-19 06:05 39.473271 -121.549520 319 10438ft 246kts
26-Apr-19 06:06 39.526194 -121.606878 317 10444ft 251kts
26-Apr-19 06:07 39.580032 -121.665520 316 10446ft 254kts
26-Apr-19 06:08 39.634164 -121.724529 316 10446ft 254kts
26-Apr-19 06:09 39.688362 -121.783735 316 10446ft 254kts
26-Apr-19 06:10 39.742687 -121.843205 316 10445ft 254kts
26-Apr-19 06:11 39.796664 -121.902420 316 10445ft 254kts
26-Apr-19 06:12 39.850762 -121.961896 316 10445ft 254kts
26-Apr-19 06:13 39.904728 -122.021497 318 10446ft 251kts
26-Apr-19 06:14 39.957536 -122.079652 318 10448ft 247kts
26-Apr-19 06:15 40.010027 -122.137718 318 10445ft 247kts
26-Apr-19 06:16 40.062596 -122.196015 318 10444ft 247kts
26-Apr-19 06:17 40.114655 -122.252096 320 10445ft 248kts
26-Apr-19 06:18 40.169534 -122.307064 320 10444ft 248kts
26-Apr-19 06:19 40.224395 -122.362130 320 10444ft 248kts
26-Apr-19 06:20 40.279250 -122.417304 320 10444ft 248kts
26-Apr-19 06:21 40.334074 -122.472564 320 10444ft 248kts
26-Apr-19 06:22 40.388813 -122.527854 320 10443ft 248kts
26-Apr-19 06:23 40.443392 -122.583099 320 10443ft 248kts
26-Apr-19 06:24 40.498123 -122.638615 320 10435ft 248kts
26-Apr-19 06:25 40.553136 -122.694536 320 10344ft 249kts
26-Apr-19 06:26 40.607789 -122.750206 320 10344ft 248kts
26-Apr-19 06:27 40.662434 -122.805989 320 10344ft 248kts
26-Apr-19 06:28 40.717085 -122.861895 320 10344ft 248kts
26-Apr-19 06:29 40.771681 -122.917870 320 10344ft 248kts
26-Apr-19 06:30 40.825966 -122.973644 320 10344ft 247kts
26-Apr-19 06:31 40.879981 -123.029257 320 10343ft 245kts
26-Apr-19 06:32 40.933748 -123.084734 320 10343ft 244kts
26-Apr-19 06:33 40.987078 -123.139870 321 10366ft 242kts
26-Apr-19 06:34 41.039924 -123.194621 321 10428ft 240kts
26-Apr-19 06:35 41.092591 -123.249303 321 10467ft 239kts
26-Apr-19 06:36 41.143625 -123.302407 321 10484ft 239kts
26-Apr-19 06:37 41.196990 -123.358001 317 10482ft 247kts
26-Apr-19 06:38 41.251263 -123.414739 318 10480ft 248kts
26-Apr-19 06:40 41.305524 -123.471557 318 10479ft 248kts
26-Apr-19 06:41 41.359926 -123.528648 318 10479ft 248kts
26-Apr-19 06:42 41.414165 -123.585690 318 10479ft 248kts
26-Apr-19 06:43 41.468151 -123.642808 321 10487ft 244kts
26-Apr-19 06:44 41.521095 -123.698500 319 10494ft 240kts
26-Apr-19 06:45 41.573772 -123.754258 319 10499ft 241kts
26-Apr-19 06:46 41.626401 -123.810103 319 10500ft 241kts
26-Apr-19 06:47 41.679184 -123.866221 319 10500ft 241kts
26-Apr-19 06:48 41.731674 -123.922142 319 10499ft 241kts
26-Apr-19 06:49 41.784303 -123.978335 319 10499ft 241kts
26-Apr-19 06:50 41.837002 -124.034723 319 10499ft 241kts
26-Apr-19 06:51 41.888401 -124.089874 320 9122ft 227kts
26-Apr-19 06:52 41.937495 -124.142617 321 7041ft 224kts
26-Apr-19 06:53 41.983891 -124.192562 321 5190ft 196kts
26-Apr-19 06:54 42.024889 -124.236765 321 3341ft 184kts
26-Apr-19 06:55 42.056679 -124.274980 325 1913ft 92kts
26-Apr-19 06:56 42.083190 -124.294709 354 816ft 110kts
26-Apr-19 06:57 42.080442 -124.296221 140 672ft 94kts
26-Apr-19 06:58 42.075273 -124.289660 55 461ft 0kts
26-Apr-19 06:59 42.075273 -124.289660 55 461ft 0kts
26-Apr-19 06:59 42.075273 -124.289660 55 461ft 0kts
26-Apr-19 07:01 42.075273 -124.289660 55 461ft 0kts
26-Apr-19 07:02 42.075273 -124.289660 55 461ft 0kts
26-Apr-19 07:02 42.075273 -124.289660 55 461ft 0kts
26-Apr-19 07:03 42.075273 -124.289660 55 461ft 0kts
26-Apr-19 07:05 42.075273 -124.289660 55 461ft 0kts
26-Apr-19 07:05 42.075273 -124.289660 55 461ft 0kts
26-Apr-19 07:06 42.075273 -124.289660 55 461ft 0kts
26-Apr-19 07:08 42.075273 -124.289660 55 461ft 0kts
26-Apr-19 07:08 42.075273 -124.289660 55 461ft 0kts
26-Apr-19 07:09 42.075273 -124.289660 55 461ft 0kts
26-Apr-19 07:10 42.075273 -124.289660 55 461ft 0kts
26-Apr-19 07:11 42.075273 -124.289660 55 461ft 0kts

Navigation Log

Ident Type
Flight plan parsing failed, navigation log unavailable